ETD902 EDDF-OMAA
Flight info
| Callsign | ETD902 |
|---|---|
| Flight time | N/A |
| Altitude | 31000 |
| Route | CINDY5L CINDY Z74 HAREM DCT ASLEP DCT TAKUT DCT DINKU L603 BESNI/N0483F330 L605 MIQ DCT ALUTU DCT BIBAG L605 ESEGA DCT LIMRA DCT NURMI DCT NIDLO DCT VABEK UL603 OLOTA DCT RUGAS DCT PEREN DCT RIKSO UP14 LAVTA UN135 NESIL UT39 TOMBI DCT BALMA UR655 CAK UN310 LATEB N310 BASEM/N0485F350 R785 RASLI P559 TRF R23 NEVOL N318 TAMRO T503 KSA N687 KINIB Z511 GISRA L681 ORLEK DCT KUPRO N300 KAXOB Q415 UKILI |
| Aircraft | B77L/H-SDE1E2E3FGHIJ2J3J4J5M1RWXY/LB1D1 |
Departure
| Time | 2026-05-06 06:49 |
|---|---|
| Airport | Frankfurt Main Airport (EDDF) |
Arrival
| Time | N/A |
|---|---|
| Airport | Zayed International Airport (OMAA) |
| Time | Latitude | Longitude | Altitude | Speed | Heading |
|---|---|---|---|---|---|
| 2026-05-06 06:07 | 50.02877 | 8.56909 | 365 ft | 0 kts | 250° |
| 2026-05-06 06:32 | 50.02878 | 8.56918 | 355 ft | 2 kts | 250° |
| 2026-05-06 06:33 | 50.02885 | 8.56946 | 355 ft | 3 kts | 249° |
| 2026-05-06 06:33 | 50.02892 | 8.56976 | 356 ft | 3 kts | 249° |
| 2026-05-06 06:33 | 50.02898 | 8.57004 | 356 ft | 3 kts | 266° |
| 2026-05-06 06:33 | 50.02896 | 8.57032 | 360 ft | 3 kts | 300° |
| 2026-05-06 06:34 | 50.02884 | 8.57054 | 356 ft | 3 kts | 331° |
| 2026-05-06 06:34 | 50.02876 | 8.57060 | 356 ft | 1 kts | 340° |
| 2026-05-06 06:34 | 50.02891 | 8.57052 | 364 ft | 3 kts | 340° |
| 2026-05-06 06:34 | 50.02910 | 8.57041 | 359 ft | 2 kts | 340° |
| 2026-05-06 06:35 | 50.02916 | 8.57037 | 363 ft | 1 kts | 340° |
| 2026-05-06 06:35 | 50.02916 | 8.57038 | 356 ft | 0 kts | 340° |
| 2026-05-06 06:37 | 50.02916 | 8.57037 | 356 ft | 0 kts | 340° |
| 2026-05-06 06:37 | 50.02927 | 8.57031 | 363 ft | 3 kts | 340° |
| 2026-05-06 06:38 | 50.02957 | 8.57014 | 363 ft | 5 kts | 340° |
| 2026-05-06 06:38 | 50.02992 | 8.56994 | 358 ft | 7 kts | 340° |
| 2026-05-06 06:38 | 50.03047 | 8.56962 | 357 ft | 9 kts | 340° |
| 2026-05-06 06:38 | 50.03105 | 8.56929 | 365 ft | 9 kts | 340° |
| 2026-05-06 06:39 | 50.03163 | 8.56895 | 364 ft | 9 kts | 340° |
| 2026-05-06 06:39 | 50.03222 | 8.56861 | 365 ft | 9 kts | 340° |
| 2026-05-06 06:39 | 50.03281 | 8.56827 | 363 ft | 10 kts | 340° |
| 2026-05-06 06:39 | 50.03330 | 8.56794 | 356 ft | 8 kts | 327° |
| 2026-05-06 06:40 | 50.03348 | 8.56719 | 364 ft | 9 kts | 263° |
| 2026-05-06 06:40 | 50.03326 | 8.56610 | 359 ft | 12 kts | 250° |
| 2026-05-06 06:40 | 50.03292 | 8.56466 | 361 ft | 16 kts | 250° |
| 2026-05-06 06:40 | 50.03250 | 8.56290 | 362 ft | 19 kts | 249° |
| 2026-05-06 06:41 | 50.03202 | 8.56089 | 358 ft | 21 kts | 249° |
| 2026-05-06 06:41 | 50.03147 | 8.55862 | 357 ft | 24 kts | 249° |
| 2026-05-06 06:41 | 50.03086 | 8.55605 | 350 ft | 27 kts | 250° |
| 2026-05-06 06:41 | 50.03020 | 8.55329 | 354 ft | 27 kts | 250° |
| 2026-05-06 06:42 | 50.02954 | 8.55051 | 347 ft | 27 kts | 250° |
| 2026-05-06 06:42 | 50.02887 | 8.54773 | 343 ft | 27 kts | 250° |
| 2026-05-06 06:42 | 50.02821 | 8.54496 | 344 ft | 27 kts | 249° |
| 2026-05-06 06:42 | 50.02754 | 8.54218 | 351 ft | 27 kts | 250° |
| 2026-05-06 06:43 | 50.02688 | 8.53941 | 337 ft | 27 kts | 249° |
| 2026-05-06 06:43 | 50.02649 | 8.53781 | 333 ft | 13 kts | 249° |
| 2026-05-06 06:43 | 50.02589 | 8.53674 | 336 ft | 13 kts | 215° |
| 2026-05-06 06:43 | 50.02522 | 8.53580 | 338 ft | 13 kts | 240° |
| 2026-05-06 06:44 | 50.02488 | 8.53450 | 345 ft | 13 kts | 249° |
| 2026-05-06 06:44 | 50.02456 | 8.53316 | 336 ft | 14 kts | 249° |
| 2026-05-06 06:44 | 50.02423 | 8.53176 | 336 ft | 14 kts | 249° |
| 2026-05-06 06:44 | 50.02402 | 8.53036 | 339 ft | 14 kts | 277° |
| 2026-05-06 06:45 | 50.02449 | 8.52913 | 334 ft | 12 kts | 306° |
| 2026-05-06 06:45 | 50.02508 | 8.52833 | 340 ft | 12 kts | 344° |
| 2026-05-06 06:45 | 50.02591 | 8.52827 | 336 ft | 13 kts | 359° |
| 2026-05-06 06:45 | 50.02710 | 8.52826 | 336 ft | 20 kts | 360° |
| 2026-05-06 06:46 | 50.02851 | 8.52824 | 336 ft | 20 kts | 360° |
| 2026-05-06 06:46 | 50.02991 | 8.52823 | 338 ft | 20 kts | 359° |
| 2026-05-06 06:46 | 50.03131 | 8.52822 | 340 ft | 20 kts | 360° |
| 2026-05-06 06:46 | 50.03225 | 8.52821 | 335 ft | 9 kts | 359° |
| 2026-05-06 06:47 | 50.03276 | 8.52797 | 334 ft | 7 kts | 312° |
| 2026-05-06 06:47 | 50.03277 | 8.52723 | 334 ft | 7 kts | 254° |
| 2026-05-06 06:47 | 50.03255 | 8.52656 | 335 ft | 7 kts | 238° |
| 2026-05-06 06:47 | 50.03221 | 8.52605 | 340 ft | 7 kts | 203° |
| 2026-05-06 06:48 | 50.03173 | 8.52595 | 335 ft | 7 kts | 180° |
| 2026-05-06 06:48 | 50.03048 | 8.52596 | 340 ft | 36 kts | 179° |
| 2026-05-06 06:48 | 50.02579 | 8.52601 | 335 ft | 97 kts | 180° |
| 2026-05-06 06:48 | 50.01721 | 8.52609 | 334 ft | 148 kts | 180° |
| 2026-05-06 06:49 | 50.00555 | 8.52621 | 339 ft | 185 kts | 179° |
| 2026-05-06 06:49 | 49.99255 | 8.52646 | 763 ft | 182 kts | 179° |
| 2026-05-06 06:49 | 49.98003 | 8.52692 | 1324 ft | 181 kts | 178° |
| 2026-05-06 06:49 | 49.96730 | 8.52782 | 1728 ft | 186 kts | 177° |
| 2026-05-06 06:50 | 49.95433 | 8.52897 | 2189 ft | 187 kts | 177° |
| 2026-05-06 06:50 | 49.94128 | 8.52997 | 2667 ft | 186 kts | 178° |
| 2026-05-06 06:50 | 49.92829 | 8.53090 | 3043 ft | 191 kts | 180° |
| 2026-05-06 06:50 | 49.91497 | 8.53185 | 3454 ft | 192 kts | 180° |
| 2026-05-06 06:51 | 49.90101 | 8.53287 | 3655 ft | 210 kts | 180° |
| 2026-05-06 06:51 | 49.88577 | 8.53398 | 3832 ft | 230 kts | 180° |
| 2026-05-06 06:51 | 49.86912 | 8.53510 | 4079 ft | 247 kts | 180° |
| 2026-05-06 06:51 | 49.85160 | 8.53643 | 4561 ft | 256 kts | 180° |
| 2026-05-06 06:52 | 49.83363 | 8.53777 | 5191 ft | 260 kts | 180° |
| 2026-05-06 06:52 | 49.81576 | 8.53911 | 5836 ft | 261 kts | 179° |
| 2026-05-06 06:52 | 49.79805 | 8.54651 | 6273 ft | 274 kts | 151° |
| 2026-05-06 06:52 | 49.78454 | 8.56787 | 6843 ft | 286 kts | 120° |
| 2026-05-06 06:53 | 49.77925 | 8.59765 | 7405 ft | 292 kts | 96° |
| 2026-05-06 06:53 | 49.77822 | 8.62940 | 7889 ft | 299 kts | 94° |
| 2026-05-06 06:53 | 49.77734 | 8.66161 | 8511 ft | 301 kts | 94° |
| 2026-05-06 06:53 | 49.77637 | 8.69398 | 9152 ft | 302 kts | 95° |
| 2026-05-06 06:54 | 49.77532 | 8.72656 | 9748 ft | 305 kts | 95° |
| 2026-05-06 06:54 | 49.77421 | 8.75969 | 10188 ft | 315 kts | 95° |
| 2026-05-06 06:54 | 49.77296 | 8.79458 | 10350 ft | 335 kts | 95° |
| 2026-05-06 06:54 | 49.77161 | 8.83168 | 10528 ft | 356 kts | 95° |
| 2026-05-06 06:55 | 49.77017 | 8.87102 | 10708 ft | 376 kts | 95° |
| 2026-05-06 06:55 | 49.76871 | 8.91210 | 11157 ft | 388 kts | 95° |
| 2026-05-06 06:55 | 49.76720 | 8.95420 | 11781 ft | 395 kts | 95° |
| 2026-05-06 06:55 | 49.76565 | 8.99683 | 12592 ft | 398 kts | 95° |
| 2026-05-06 06:56 | 49.76407 | 9.03964 | 13412 ft | 400 kts | 96° |
| 2026-05-06 06:56 | 49.76240 | 9.08290 | 14108 ft | 405 kts | 96° |
| 2026-05-06 06:56 | 49.75871 | 9.12617 | 14681 ft | 408 kts | 105° |
| 2026-05-06 06:56 | 49.75180 | 9.16883 | 15322 ft | 407 kts | 110° |
| 2026-05-06 06:57 | 49.73904 | 9.20764 | 15742 ft | 407 kts | 133° |
| 2026-05-06 06:57 | 49.71919 | 9.23832 | 16246 ft | 404 kts | 139° |
| 2026-05-06 06:57 | 49.69954 | 9.27014 | 16754 ft | 413 kts | 135° |
| 2026-05-06 06:57 | 49.68056 | 9.30371 | 17444 ft | 416 kts | 134° |
| 2026-05-06 06:58 | 49.66159 | 9.33756 | 18100 ft | 418 kts | 134° |
| 2026-05-06 06:58 | 49.64242 | 9.37157 | 18681 ft | 423 kts | 133° |
| 2026-05-06 06:58 | 49.62501 | 9.40861 | 19260 ft | 430 kts | 124° |
| 2026-05-06 06:58 | 49.61083 | 9.44945 | 19832 ft | 435 kts | 117° |
| 2026-05-06 06:59 | 49.59991 | 9.49334 | 20381 ft | 441 kts | 110° |
| 2026-05-06 06:59 | 49.59065 | 9.53858 | 20933 ft | 445 kts | 110° |
| 2026-05-06 06:59 | 49.58131 | 9.58415 | 21460 ft | 448 kts | 110° |
| 2026-05-06 06:59 | 49.57173 | 9.62997 | 21999 ft | 451 kts | 110° |
| 2026-05-06 07:00 | 49.56192 | 9.67603 | 22514 ft | 454 kts | 111° |
| 2026-05-06 07:00 | 49.55195 | 9.72236 | 23032 ft | 457 kts | 111° |
| 2026-05-06 07:00 | 49.54181 | 9.76892 | 23542 ft | 459 kts | 112° |
| 2026-05-06 07:00 | 49.52947 | 9.81420 | 24037 ft | 459 kts | 119° |
| 2026-05-06 07:01 | 49.51937 | 9.84273 | 24356 ft | 459 kts | 123° |
| 2026-05-06 07:01 | 49.50191 | 9.88397 | 24810 ft | 460 kts | 130° |
| 2026-05-06 07:01 | 49.48181 | 9.92241 | 25250 ft | 461 kts | 133° |
| 2026-05-06 07:01 | 49.46124 | 9.96050 | 25703 ft | 464 kts | 134° |
| 2026-05-06 07:02 | 49.44066 | 9.99886 | 26144 ft | 467 kts | 134° |
| 2026-05-06 07:02 | 49.42008 | 10.03757 | 26572 ft | 469 kts | 134° |
| 2026-05-06 07:02 | 49.39941 | 10.07666 | 26945 ft | 473 kts | 134° |
| 2026-05-06 07:02 | 49.37862 | 10.11596 | 27358 ft | 475 kts | 134° |
| 2026-05-06 07:03 | 49.35772 | 10.15537 | 27760 ft | 477 kts | 135° |
| 2026-05-06 07:03 | 49.33667 | 10.19485 | 28148 ft | 479 kts | 135° |
| 2026-05-06 07:03 | 49.31548 | 10.23451 | 28539 ft | 481 kts | 136° |
| 2026-05-06 07:03 | 49.29428 | 10.27417 | 28868 ft | 483 kts | 136° |
| 2026-05-06 07:04 | 49.27290 | 10.31419 | 29177 ft | 486 kts | 136° |
| 2026-05-06 07:04 | 49.25144 | 10.35423 | 29513 ft | 487 kts | 136° |
| 2026-05-06 07:04 | 49.22961 | 10.39375 | 29863 ft | 484 kts | 140° |
| 2026-05-06 07:04 | 49.20597 | 10.42997 | 30256 ft | 478 kts | 144° |
| 2026-05-06 07:05 | 49.18174 | 10.46456 | 30694 ft | 476 kts | 144° |
| 2026-05-06 07:05 | 49.15769 | 10.49957 | 31014 ft | 478 kts | 143° |
| 2026-05-06 07:05 | 49.13378 | 10.53502 | 31308 ft | 480 kts | 142° |
| 2026-05-06 07:05 | 49.10991 | 10.57062 | 31639 ft | 480 kts | 142° |
| 2026-05-06 07:06 | 49.08600 | 10.60617 | 31970 ft | 479 kts | 142° |
| 2026-05-06 07:06 | 49.06210 | 10.64158 | 32284 ft | 479 kts | 142° |
| 2026-05-06 07:06 | 49.03817 | 10.67691 | 32591 ft | 479 kts | 142° |
| 2026-05-06 07:06 | 49.01407 | 10.71231 | 32750 ft | 483 kts | 142° |
| 2026-05-06 07:07 | 48.98980 | 10.74780 | 32789 ft | 485 kts | 142° |
| 2026-05-06 07:07 | 48.94129 | 10.81878 | 32812 ft | 481 kts | 142° |
| 2026-05-06 07:08 | 48.89363 | 10.88851 | 32828 ft | 478 kts | 142° |
| 2026-05-06 07:08 | 48.84574 | 10.95866 | 32826 ft | 478 kts | 142° |
| 2026-05-06 07:09 | 48.79791 | 11.02862 | 32827 ft | 478 kts | 142° |
| 2026-05-06 07:09 | 48.74989 | 11.09850 | 32838 ft | 479 kts | 143° |
| 2026-05-06 07:10 | 48.70178 | 11.16832 | 32830 ft | 479 kts | 142° |
| 2026-05-06 07:10 | 48.65586 | 11.24321 | 32825 ft | 490 kts | 130° |
| 2026-05-06 07:11 | 48.62435 | 11.33591 | 32827 ft | 505 kts | 114° |
| 2026-05-06 07:11 | 48.60383 | 11.43782 | 32828 ft | 508 kts | 112° |
| 2026-05-06 07:12 | 48.58286 | 11.53889 | 32834 ft | 508 kts | 114° |
| 2026-05-06 07:12 | 48.56252 | 11.64127 | 32825 ft | 512 kts | 108° |
| 2026-05-06 07:13 | 48.54759 | 11.74673 | 32829 ft | 514 kts | 107° |
| 2026-05-06 07:13 | 48.53296 | 11.85237 | 32837 ft | 514 kts | 108° |
| 2026-05-06 07:14 | 48.51759 | 11.95768 | 32831 ft | 514 kts | 108° |
| 2026-05-06 07:14 | 48.50198 | 12.06279 | 32831 ft | 514 kts | 108° |
| 2026-05-06 07:15 | 48.48627 | 12.16783 | 32835 ft | 513 kts | 108° |
| 2026-05-06 07:15 | 48.47042 | 12.27269 | 32827 ft | 513 kts | 108° |
| 2026-05-06 07:16 | 48.45448 | 12.37747 | 32844 ft | 513 kts | 108° |
| 2026-05-06 07:16 | 48.43846 | 12.48204 | 32826 ft | 513 kts | 108° |
| 2026-05-06 07:17 | 48.42237 | 12.58656 | 32838 ft | 512 kts | 108° |
| 2026-05-06 07:17 | 48.40620 | 12.69098 | 32844 ft | 512 kts | 108° |
| 2026-05-06 07:18 | 48.38771 | 12.79412 | 32830 ft | 506 kts | 115° |
| 2026-05-06 07:18 | 48.36390 | 12.89366 | 32830 ft | 506 kts | 115° |
| 2026-05-06 07:19 | 48.34012 | 12.99347 | 32834 ft | 506 kts | 115° |
| 2026-05-06 07:19 | 48.31673 | 13.09311 | 32834 ft | 507 kts | 115° |
| 2026-05-06 07:20 | 48.29289 | 13.19267 | 32830 ft | 505 kts | 117° |
| 2026-05-06 07:20 | 48.26461 | 13.28864 | 32849 ft | 502 kts | 120° |
| 2026-05-06 07:21 | 48.23569 | 13.38417 | 32843 ft | 503 kts | 120° |
| 2026-05-06 07:21 | 48.20684 | 13.47989 | 32833 ft | 504 kts | 119° |
| 2026-05-06 07:22 | 48.17813 | 13.57555 | 32855 ft | 504 kts | 119° |
| 2026-05-06 07:22 | 48.14924 | 13.67139 | 32855 ft | 505 kts | 119° |
| 2026-05-06 07:23 | 48.12026 | 13.76720 | 32856 ft | 505 kts | 119° |
| 2026-05-06 07:23 | 48.09118 | 13.86288 | 32851 ft | 506 kts | 120° |
| 2026-05-06 07:24 | 48.06217 | 13.95800 | 32853 ft | 506 kts | 120° |
| 2026-05-06 07:24 | 48.03290 | 14.05359 | 32861 ft | 506 kts | 120° |
| 2026-05-06 07:25 | 48.00352 | 14.14925 | 32863 ft | 507 kts | 120° |
| 2026-05-06 07:25 | 47.97404 | 14.24478 | 32860 ft | 507 kts | 120° |
| 2026-05-06 07:26 | 47.94449 | 14.34028 | 32865 ft | 507 kts | 120° |
| 2026-05-06 07:26 | 47.91426 | 14.43523 | 32858 ft | 505 kts | 123° |
| 2026-05-06 07:27 | 47.87599 | 14.52159 | 32868 ft | 497 kts | 132° |
| 2026-05-06 07:27 | 47.83446 | 14.60373 | 32873 ft | 497 kts | 132° |
| 2026-05-06 07:28 | 47.79312 | 14.68650 | 32897 ft | 499 kts | 131° |
| 2026-05-06 07:28 | 47.73139 | 14.81093 | 32907 ft | 498 kts | 131° |
| 2026-05-06 07:29 | 47.69009 | 14.89373 | 32905 ft | 499 kts | 132° |
| 2026-05-06 07:29 | 47.64380 | 14.96938 | 32909 ft | 491 kts | 144° |
| 2026-05-06 07:30 | 47.59137 | 15.03391 | 32914 ft | 491 kts | 145° |
| 2026-05-06 07:30 | 47.53903 | 15.09817 | 32910 ft | 493 kts | 145° |
| 2026-05-06 07:31 | 47.48639 | 15.16333 | 32903 ft | 494 kts | 144° |
| 2026-05-06 07:31 | 47.43367 | 15.22873 | 32916 ft | 496 kts | 144° |
| 2026-05-06 07:32 | 47.38088 | 15.29410 | 32887 ft | 495 kts | 144° |
| 2026-05-06 07:32 | 47.32812 | 15.35916 | 32907 ft | 494 kts | 144° |
| 2026-05-06 07:33 | 47.27528 | 15.42407 | 32892 ft | 495 kts | 144° |
| 2026-05-06 07:33 | 47.22241 | 15.48893 | 32892 ft | 495 kts | 144° |
| 2026-05-06 07:34 | 47.16945 | 15.55368 | 32885 ft | 495 kts | 144° |
| 2026-05-06 07:34 | 47.11642 | 15.61835 | 32883 ft | 496 kts | 144° |
| 2026-05-06 07:35 | 47.06332 | 15.68294 | 32897 ft | 496 kts | 145° |
| 2026-05-06 07:35 | 47.01014 | 15.74744 | 32881 ft | 496 kts | 145° |
| 2026-05-06 07:36 | 46.95689 | 15.81190 | 32886 ft | 497 kts | 145° |
| 2026-05-06 07:36 | 46.90358 | 15.87625 | 32905 ft | 497 kts | 145° |
| 2026-05-06 07:37 | 46.85019 | 15.94052 | 32901 ft | 498 kts | 145° |
| 2026-05-06 07:37 | 46.79687 | 16.00500 | 32908 ft | 499 kts | 143° |
| 2026-05-06 07:38 | 46.74535 | 16.07308 | 32906 ft | 500 kts | 141° |
| 2026-05-06 07:38 | 46.69412 | 16.14166 | 32909 ft | 501 kts | 141° |
| 2026-05-06 07:39 | 46.64261 | 16.21025 | 32915 ft | 502 kts | 142° |
| 2026-05-06 07:39 | 46.59100 | 16.27859 | 32920 ft | 502 kts | 142° |
| 2026-05-06 07:40 | 46.53952 | 16.34643 | 32918 ft | 503 kts | 142° |
| 2026-05-06 07:40 | 46.48760 | 16.41463 | 32917 ft | 504 kts | 142° |
| 2026-05-06 07:41 | 46.43557 | 16.48281 | 32922 ft | 504 kts | 142° |
| 2026-05-06 07:41 | 46.38354 | 16.55083 | 32930 ft | 504 kts | 142° |
| 2026-05-06 07:42 | 46.33148 | 16.61872 | 32941 ft | 504 kts | 142° |
| 2026-05-06 07:42 | 46.27937 | 16.68645 | 32944 ft | 503 kts | 142° |
| 2026-05-06 07:43 | 46.22728 | 16.75400 | 32943 ft | 503 kts | 142° |
| 2026-05-06 07:43 | 46.17510 | 16.82157 | 32945 ft | 504 kts | 142° |
| 2026-05-06 07:44 | 46.12288 | 16.88891 | 32943 ft | 504 kts | 142° |
| 2026-05-06 07:44 | 46.07047 | 16.95630 | 32946 ft | 505 kts | 142° |
| 2026-05-06 07:45 | 46.01803 | 17.02360 | 32953 ft | 505 kts | 142° |
| 2026-05-06 07:45 | 45.96552 | 17.09081 | 32953 ft | 506 kts | 142° |
| 2026-05-06 07:46 | 45.91285 | 17.15802 | 32953 ft | 507 kts | 142° |
| 2026-05-06 07:46 | 45.86899 | 17.21388 | 32956 ft | 508 kts | 142° |
| 2026-05-06 07:47 | 45.81607 | 17.28112 | 32975 ft | 509 kts | 141° |
| 2026-05-06 07:47 | 45.75435 | 17.35929 | 32969 ft | 510 kts | 142° |
| 2026-05-06 07:48 | 45.70974 | 17.41563 | 32982 ft | 511 kts | 141° |
| 2026-05-06 07:48 | 45.65638 | 17.48289 | 32978 ft | 511 kts | 141° |
| 2026-05-06 07:49 | 45.60296 | 17.55005 | 32978 ft | 512 kts | 141° |
| 2026-05-06 07:49 | 45.54977 | 17.61669 | 32982 ft | 512 kts | 142° |
| 2026-05-06 07:50 | 45.49591 | 17.68405 | 32973 ft | 512 kts | 142° |
| 2026-05-06 07:50 | 45.44239 | 17.75080 | 32975 ft | 511 kts | 142° |
| 2026-05-06 07:51 | 45.38919 | 17.81694 | 32980 ft | 511 kts | 142° |
| 2026-05-06 07:51 | 45.33572 | 17.88333 | 32981 ft | 510 kts | 142° |
| 2026-05-06 07:52 | 45.28224 | 17.94946 | 32979 ft | 509 kts | 142° |
| 2026-05-06 07:52 | 45.22878 | 18.01538 | 32980 ft | 509 kts | 142° |
| 2026-05-06 07:53 | 45.17526 | 18.08129 | 32974 ft | 510 kts | 141° |
| 2026-05-06 07:53 | 45.12156 | 18.14723 | 32996 ft | 511 kts | 141° |
| 2026-05-06 07:54 | 45.06776 | 18.21310 | 32997 ft | 512 kts | 141° |
| 2026-05-06 07:54 | 45.01376 | 18.27906 | 32977 ft | 513 kts | 141° |
| 2026-05-06 07:55 | 44.95977 | 18.34483 | 32997 ft | 513 kts | 141° |
| 2026-05-06 07:55 | 44.90568 | 18.41058 | 32997 ft | 513 kts | 141° |
| 2026-05-06 07:56 | 44.85154 | 18.47617 | 33002 ft | 514 kts | 141° |
| 2026-05-06 07:56 | 44.79726 | 18.54179 | 32997 ft | 514 kts | 141° |
| 2026-05-06 07:57 | 44.74296 | 18.60726 | 33002 ft | 514 kts | 141° |
| 2026-05-06 07:57 | 44.68869 | 18.67253 | 33003 ft | 514 kts | 141° |
| 2026-05-06 07:58 | 44.63434 | 18.73772 | 32998 ft | 513 kts | 141° |
| 2026-05-06 07:58 | 44.58002 | 18.80272 | 32997 ft | 513 kts | 141° |
| 2026-05-06 07:59 | 44.52561 | 18.86764 | 33000 ft | 514 kts | 142° |
| 2026-05-06 07:59 | 44.47119 | 18.93242 | 32983 ft | 514 kts | 142° |
| 2026-05-06 08:00 | 44.41661 | 18.99720 | 33003 ft | 514 kts | 142° |
| 2026-05-06 08:00 | 44.36197 | 19.06191 | 32997 ft | 515 kts | 142° |
| 2026-05-06 08:01 | 44.30725 | 19.12655 | 33005 ft | 515 kts | 142° |
| 2026-05-06 08:01 | 44.25241 | 19.19117 | 33008 ft | 517 kts | 141° |
| 2026-05-06 08:02 | 44.19744 | 19.25580 | 33006 ft | 518 kts | 141° |
| 2026-05-06 08:02 | 44.14225 | 19.32050 | 33021 ft | 519 kts | 141° |
| 2026-05-06 08:03 | 44.08688 | 19.38526 | 33021 ft | 520 kts | 141° |
| 2026-05-06 08:03 | 44.03143 | 19.44997 | 33018 ft | 521 kts | 142° |
| 2026-05-06 08:04 | 43.97585 | 19.51457 | 33026 ft | 521 kts | 142° |
| 2026-05-06 08:04 | 43.92014 | 19.57923 | 33038 ft | 523 kts | 141° |
| 2026-05-06 08:05 | 43.86430 | 19.64388 | 33023 ft | 523 kts | 141° |
| 2026-05-06 08:05 | 43.80839 | 19.70846 | 33030 ft | 523 kts | 142° |
| 2026-05-06 08:06 | 43.75280 | 19.77252 | 33047 ft | 524 kts | 142° |
| 2026-05-06 08:06 | 43.69676 | 19.83690 | 33047 ft | 524 kts | 142° |
| 2026-05-06 08:07 | 43.64067 | 19.90117 | 33049 ft | 524 kts | 142° |
| 2026-05-06 08:07 | 43.58454 | 19.96536 | 33065 ft | 524 kts | 142° |
| 2026-05-06 08:08 | 43.52841 | 20.02939 | 33054 ft | 524 kts | 142° |
| 2026-05-06 08:08 | 43.47219 | 20.09334 | 33053 ft | 524 kts | 142° |
| 2026-05-06 08:09 | 43.41602 | 20.15705 | 33048 ft | 523 kts | 142° |
| 2026-05-06 08:09 | 43.35983 | 20.22067 | 33054 ft | 523 kts | 142° |
| 2026-05-06 08:10 | 43.30364 | 20.28411 | 33059 ft | 523 kts | 142° |
| 2026-05-06 08:10 | 43.24738 | 20.34746 | 33066 ft | 523 kts | 142° |
| 2026-05-06 08:11 | 43.19109 | 20.41072 | 33068 ft | 523 kts | 142° |
| 2026-05-06 08:11 | 43.13518 | 20.47340 | 33072 ft | 523 kts | 142° |
| 2026-05-06 08:12 | 43.07887 | 20.53639 | 33081 ft | 523 kts | 142° |
| 2026-05-06 08:12 | 43.02241 | 20.59936 | 33083 ft | 524 kts | 142° |
| 2026-05-06 08:13 | 42.96796 | 20.66560 | 33084 ft | 524 kts | 136° |
| 2026-05-06 08:13 | 42.91561 | 20.73469 | 33094 ft | 524 kts | 136° |
| 2026-05-06 08:14 | 42.86315 | 20.80368 | 33098 ft | 524 kts | 136° |
| 2026-05-06 08:14 | 42.81054 | 20.87230 | 33090 ft | 524 kts | 136° |
| 2026-05-06 08:15 | 42.75781 | 20.94077 | 33103 ft | 524 kts | 136° |
| 2026-05-06 08:15 | 42.70500 | 21.00917 | 33098 ft | 525 kts | 136° |
| 2026-05-06 08:16 | 42.65204 | 21.07756 | 33103 ft | 525 kts | 136° |
| 2026-05-06 08:16 | 42.59900 | 21.14589 | 33101 ft | 526 kts | 136° |
| 2026-05-06 08:17 | 42.54584 | 21.21424 | 33098 ft | 527 kts | 136° |
| 2026-05-06 08:17 | 42.49259 | 21.28254 | 33106 ft | 528 kts | 136° |
| 2026-05-06 08:18 | 42.43913 | 21.35094 | 33103 ft | 529 kts | 136° |
| 2026-05-06 08:18 | 42.38560 | 21.41927 | 33095 ft | 529 kts | 136° |
| 2026-05-06 08:19 | 42.33228 | 21.48716 | 33093 ft | 530 kts | 136° |
| 2026-05-06 08:19 | 42.27848 | 21.55554 | 33084 ft | 531 kts | 136° |
| 2026-05-06 08:20 | 42.22456 | 21.62391 | 33079 ft | 533 kts | 136° |
| 2026-05-06 08:20 | 42.17106 | 21.69407 | 33083 ft | 533 kts | 134° |
| 2026-05-06 08:21 | 42.11872 | 21.76410 | 33078 ft | 534 kts | 134° |
| 2026-05-06 08:21 | 42.06582 | 21.83446 | 33070 ft | 535 kts | 134° |
| 2026-05-06 08:22 | 42.01272 | 21.90460 | 33081 ft | 535 kts | 135° |
| 2026-05-06 08:22 | 41.95946 | 21.97459 | 33076 ft | 535 kts | 135° |
| 2026-05-06 08:23 | 41.90616 | 22.04446 | 33080 ft | 535 kts | 135° |
| 2026-05-06 08:23 | 41.85288 | 22.11421 | 33084 ft | 535 kts | 135° |
| 2026-05-06 08:24 | 41.79962 | 22.18377 | 33079 ft | 534 kts | 135° |
| 2026-05-06 08:24 | 41.74632 | 22.25318 | 33089 ft | 534 kts | 135° |
| 2026-05-06 08:25 | 41.69301 | 22.32242 | 33079 ft | 534 kts | 135° |
| 2026-05-06 08:25 | 41.63963 | 22.39160 | 33084 ft | 534 kts | 135° |
| 2026-05-06 08:26 | 41.58635 | 22.46050 | 33087 ft | 533 kts | 135° |
| 2026-05-06 08:26 | 41.53306 | 22.52923 | 33081 ft | 532 kts | 135° |
| 2026-05-06 08:27 | 41.47977 | 22.59780 | 33080 ft | 532 kts | 135° |
| 2026-05-06 08:27 | 41.42655 | 22.66615 | 33084 ft | 531 kts | 135° |
| 2026-05-06 08:28 | 41.37334 | 22.73431 | 33092 ft | 530 kts | 135° |
| 2026-05-06 08:28 | 41.32086 | 22.80329 | 33083 ft | 530 kts | 130° |
| 2026-05-06 08:29 | 41.27430 | 22.87887 | 33091 ft | 527 kts | 127° |
| 2026-05-06 08:29 | 41.22847 | 22.95484 | 33092 ft | 527 kts | 127° |
| 2026-05-06 08:30 | 41.18224 | 23.03060 | 33085 ft | 528 kts | 128° |
| 2026-05-06 08:30 | 41.13607 | 23.10563 | 33085 ft | 528 kts | 128° |
| 2026-05-06 08:31 | 41.08998 | 23.18129 | 33071 ft | 527 kts | 126° |
| 2026-05-06 08:31 | 41.04565 | 23.25833 | 33084 ft | 525 kts | 125° |
| 2026-05-06 08:32 | 41.00156 | 23.33558 | 33080 ft | 525 kts | 126° |
| 2026-05-06 08:32 | 40.95719 | 23.41237 | 33071 ft | 525 kts | 126° |
| 2026-05-06 08:33 | 40.91260 | 23.48894 | 33075 ft | 525 kts | 126° |
| 2026-05-06 08:33 | 40.86795 | 23.56535 | 33076 ft | 525 kts | 126° |
| 2026-05-06 08:34 | 40.80838 | 23.66697 | 33079 ft | 526 kts | 126° |
| 2026-05-06 08:35 | 40.76354 | 23.74334 | 33068 ft | 526 kts | 126° |
| 2026-05-06 08:35 | 40.71872 | 23.81948 | 33075 ft | 525 kts | 126° |
| 2026-05-06 08:36 | 40.67390 | 23.89542 | 33072 ft | 525 kts | 127° |
| 2026-05-06 08:36 | 40.62903 | 23.97122 | 33074 ft | 524 kts | 127° |
| 2026-05-06 08:37 | 40.58417 | 24.04684 | 33078 ft | 524 kts | 127° |
| 2026-05-06 08:37 | 40.53926 | 24.12232 | 33071 ft | 524 kts | 127° |
| 2026-05-06 08:38 | 40.49439 | 24.19762 | 33074 ft | 523 kts | 127° |
| 2026-05-06 08:38 | 40.44945 | 24.27283 | 33072 ft | 523 kts | 127° |
| 2026-05-06 08:39 | 40.40461 | 24.34774 | 33075 ft | 523 kts | 127° |
| 2026-05-06 08:39 | 40.35959 | 24.42270 | 33073 ft | 523 kts | 127° |
| 2026-05-06 08:40 | 40.31454 | 24.49755 | 33076 ft | 524 kts | 127° |
| 2026-05-06 08:40 | 40.26935 | 24.57246 | 33074 ft | 524 kts | 127° |
| 2026-05-06 08:41 | 40.22408 | 24.64729 | 33074 ft | 524 kts | 127° |
| 2026-05-06 08:41 | 40.17878 | 24.72199 | 33075 ft | 524 kts | 127° |
| 2026-05-06 08:42 | 40.13343 | 24.79663 | 33083 ft | 524 kts | 127° |
| 2026-05-06 08:42 | 40.08805 | 24.87115 | 33083 ft | 524 kts | 127° |
| 2026-05-06 08:43 | 40.04267 | 24.94544 | 33078 ft | 523 kts | 127° |
| 2026-05-06 08:43 | 39.99729 | 25.01959 | 33072 ft | 523 kts | 127° |
| 2026-05-06 08:44 | 39.95187 | 25.09362 | 33076 ft | 523 kts | 127° |
| 2026-05-06 08:44 | 39.90663 | 25.16722 | 33076 ft | 524 kts | 127° |
| 2026-05-06 08:45 | 39.86098 | 25.24128 | 33074 ft | 524 kts | 127° |
| 2026-05-06 08:45 | 39.81524 | 25.31526 | 33075 ft | 525 kts | 127° |
| 2026-05-06 08:46 | 39.76948 | 25.38915 | 33072 ft | 525 kts | 127° |
| 2026-05-06 08:46 | 39.72370 | 25.46293 | 33083 ft | 524 kts | 127° |
| 2026-05-06 08:47 | 39.67790 | 25.53653 | 33081 ft | 524 kts | 127° |
| 2026-05-06 08:47 | 39.63206 | 25.60997 | 33083 ft | 523 kts | 127° |
| 2026-05-06 08:48 | 39.58622 | 25.68334 | 33084 ft | 523 kts | 127° |
| 2026-05-06 08:48 | 39.54038 | 25.75650 | 33091 ft | 523 kts | 128° |
| 2026-05-06 08:49 | 39.49452 | 25.82951 | 33091 ft | 522 kts | 128° |
| 2026-05-06 08:49 | 39.44865 | 25.90233 | 33092 ft | 522 kts | 128° |
| 2026-05-06 08:50 | 39.40270 | 25.97518 | 33097 ft | 522 kts | 128° |
| 2026-05-06 08:50 | 39.35671 | 26.04792 | 33108 ft | 522 kts | 128° |
| 2026-05-06 08:51 | 39.31103 | 26.12000 | 33100 ft | 522 kts | 128° |
| 2026-05-06 08:51 | 39.26497 | 26.19248 | 33105 ft | 522 kts | 128° |
| 2026-05-06 08:52 | 39.21889 | 26.26488 | 33106 ft | 522 kts | 128° |
| 2026-05-06 08:52 | 39.17279 | 26.33710 | 33105 ft | 522 kts | 128° |
| 2026-05-06 08:53 | 39.12665 | 26.40920 | 33098 ft | 522 kts | 128° |
| 2026-05-06 08:53 | 39.08049 | 26.48120 | 33102 ft | 522 kts | 128° |
| 2026-05-06 08:54 | 39.03425 | 26.55317 | 33105 ft | 522 kts | 128° |
| 2026-05-06 08:54 | 38.98794 | 26.62508 | 33095 ft | 522 kts | 128° |
| 2026-05-06 08:55 | 38.94162 | 26.69684 | 33107 ft | 522 kts | 128° |
| 2026-05-06 08:55 | 38.89522 | 26.76855 | 33100 ft | 522 kts | 128° |
| 2026-05-06 08:56 | 38.84883 | 26.84011 | 33104 ft | 521 kts | 128° |
| 2026-05-06 08:56 | 38.80245 | 26.91152 | 33103 ft | 521 kts | 129° |
| 2026-05-06 08:57 | 38.75603 | 26.98303 | 33103 ft | 522 kts | 127° |
| 2026-05-06 08:57 | 38.71220 | 27.05694 | 33101 ft | 521 kts | 125° |
| 2026-05-06 08:58 | 38.66925 | 27.13172 | 33100 ft | 521 kts | 125° |
| 2026-05-06 08:58 | 38.62581 | 27.20594 | 33108 ft | 521 kts | 126° |
| 2026-05-06 08:59 | 38.58205 | 27.27983 | 33109 ft | 521 kts | 126° |
| 2026-05-06 08:59 | 38.53826 | 27.35365 | 33105 ft | 521 kts | 126° |
| 2026-05-06 09:00 | 38.49446 | 27.42739 | 33097 ft | 521 kts | 126° |
| 2026-05-06 09:00 | 38.45063 | 27.50094 | 33104 ft | 521 kts | 126° |
| 2026-05-06 09:01 | 38.40673 | 27.57450 | 33103 ft | 521 kts | 126° |
| 2026-05-06 09:01 | 38.36283 | 27.64792 | 33106 ft | 522 kts | 126° |
| 2026-05-06 09:02 | 38.31877 | 27.72146 | 33090 ft | 522 kts | 126° |
| 2026-05-06 09:02 | 38.27473 | 27.79479 | 33101 ft | 521 kts | 126° |
| 2026-05-06 09:03 | 38.23065 | 27.86805 | 33094 ft | 521 kts | 126° |
| 2026-05-06 09:03 | 38.18650 | 27.94132 | 33105 ft | 523 kts | 126° |
| 2026-05-06 09:04 | 38.14217 | 28.01481 | 33112 ft | 526 kts | 126° |
| 2026-05-06 09:04 | 38.09750 | 28.08866 | 33108 ft | 528 kts | 126° |
| 2026-05-06 09:05 | 38.05264 | 28.16265 | 33097 ft | 530 kts | 126° |
| 2026-05-06 09:05 | 38.00766 | 28.23664 | 33097 ft | 530 kts | 126° |
| 2026-05-06 09:06 | 37.96290 | 28.31012 | 33094 ft | 529 kts | 126° |
| 2026-05-06 09:06 | 37.91799 | 28.38374 | 33101 ft | 528 kts | 126° |
| 2026-05-06 09:07 | 37.87308 | 28.45714 | 33094 ft | 527 kts | 127° |
| 2026-05-06 09:07 | 37.82821 | 28.53035 | 33106 ft | 526 kts | 127° |
| 2026-05-06 09:08 | 37.78337 | 28.60336 | 33096 ft | 525 kts | 127° |
| 2026-05-06 09:08 | 37.73874 | 28.67643 | 33108 ft | 524 kts | 124° |
| 2026-05-06 09:09 | 37.70165 | 28.75536 | 33090 ft | 521 kts | 112° |
| 2026-05-06 09:09 | 37.67217 | 28.83874 | 33100 ft | 520 kts | 112° |
| 2026-05-06 09:10 | 37.64238 | 28.92204 | 33098 ft | 520 kts | 112° |
| 2026-05-06 09:10 | 37.61217 | 29.00501 | 33095 ft | 520 kts | 113° |
| 2026-05-06 09:11 | 37.58186 | 29.08771 | 33109 ft | 519 kts | 113° |
| 2026-05-06 09:11 | 37.55150 | 29.17036 | 33108 ft | 520 kts | 113° |
| 2026-05-06 09:12 | 37.52136 | 29.25236 | 33113 ft | 519 kts | 114° |
| 2026-05-06 09:12 | 37.49102 | 29.33470 | 33112 ft | 518 kts | 114° |
| 2026-05-06 09:13 | 37.46060 | 29.41696 | 33111 ft | 518 kts | 114° |
| 2026-05-06 09:13 | 37.42959 | 29.49870 | 33114 ft | 518 kts | 115° |
| 2026-05-06 09:14 | 37.39809 | 29.58009 | 33114 ft | 517 kts | 115° |
| 2026-05-06 09:14 | 37.36659 | 29.66140 | 33109 ft | 517 kts | 117° |
| 2026-05-06 09:15 | 37.32417 | 29.73399 | 33116 ft | 517 kts | 135° |
| 2026-05-06 09:15 | 37.26811 | 29.78969 | 33120 ft | 514 kts | 148° |
| 2026-05-06 09:16 | 37.20845 | 29.83926 | 33113 ft | 515 kts | 147° |
| 2026-05-06 09:16 | 37.14915 | 29.89005 | 33101 ft | 516 kts | 147° |
| 2026-05-06 09:17 | 37.08988 | 29.94111 | 33105 ft | 517 kts | 147° |
| 2026-05-06 09:17 | 37.03031 | 29.99193 | 33096 ft | 519 kts | 147° |
| 2026-05-06 09:18 | 36.97062 | 30.04266 | 33082 ft | 519 kts | 147° |
| 2026-05-06 09:18 | 36.91101 | 30.09334 | 33081 ft | 518 kts | 147° |
| 2026-05-06 09:19 | 36.85141 | 30.14394 | 33070 ft | 518 kts | 147° |
| 2026-05-06 09:19 | 36.79219 | 30.19418 | 33072 ft | 518 kts | 147° |
| 2026-05-06 09:20 | 36.73254 | 30.24472 | 33060 ft | 519 kts | 147° |
| 2026-05-06 09:20 | 36.67283 | 30.29523 | 33056 ft | 519 kts | 147° |
| 2026-05-06 09:21 | 36.61303 | 30.34572 | 33069 ft | 519 kts | 147° |
| 2026-05-06 09:21 | 36.55320 | 30.39614 | 33072 ft | 520 kts | 147° |
| 2026-05-06 09:22 | 36.50334 | 30.43808 | 33056 ft | 520 kts | 148° |
| 2026-05-06 09:22 | 36.44338 | 30.48844 | 33068 ft | 520 kts | 148° |
| 2026-05-06 09:23 | 36.38341 | 30.53872 | 33062 ft | 520 kts | 148° |
| 2026-05-06 09:23 | 36.32344 | 30.58891 | 33066 ft | 520 kts | 148° |
| 2026-05-06 09:24 | 36.26346 | 30.63899 | 33062 ft | 519 kts | 148° |
| 2026-05-06 09:24 | 36.20355 | 30.68894 | 33067 ft | 519 kts | 148° |
| 2026-05-06 09:25 | 36.14360 | 30.73883 | 33064 ft | 519 kts | 148° |
| 2026-05-06 09:25 | 36.08384 | 30.78890 | 33064 ft | 518 kts | 144° |
| 2026-05-06 09:25 | 36.05687 | 30.81855 | 33054 ft | 521 kts | 133° |
| 2026-05-06 09:26 | 36.03415 | 30.85340 | 33071 ft | 521 kts | 124° |
| 2026-05-06 09:26 | 36.00160 | 30.93234 | 33089 ft | 520 kts | 111° |
| 2026-05-06 09:27 | 35.97407 | 31.01507 | 33070 ft | 522 kts | 112° |
| 2026-05-06 09:27 | 35.94596 | 31.09812 | 33081 ft | 526 kts | 112° |
| 2026-05-06 09:28 | 35.91719 | 31.18125 | 33080 ft | 528 kts | 113° |
| 2026-05-06 09:28 | 35.88808 | 31.26452 | 33081 ft | 529 kts | 113° |
| 2026-05-06 09:29 | 35.85886 | 31.34792 | 33084 ft | 530 kts | 113° |
| 2026-05-06 09:29 | 35.82963 | 31.43111 | 33081 ft | 529 kts | 113° |
| 2026-05-06 09:30 | 35.80043 | 31.51408 | 33082 ft | 527 kts | 113° |
| 2026-05-06 09:30 | 35.77127 | 31.59674 | 33081 ft | 525 kts | 113° |
| 2026-05-06 09:31 | 35.74215 | 31.67909 | 33081 ft | 524 kts | 113° |
| 2026-05-06 09:31 | 35.71303 | 31.76122 | 33088 ft | 523 kts | 114° |
| 2026-05-06 09:32 | 35.68385 | 31.84321 | 33093 ft | 523 kts | 114° |
| 2026-05-06 09:32 | 35.65469 | 31.92497 | 33092 ft | 522 kts | 114° |
| 2026-05-06 09:33 | 35.62544 | 32.00674 | 33093 ft | 523 kts | 114° |
| 2026-05-06 09:33 | 35.59611 | 32.08861 | 33092 ft | 523 kts | 114° |
| 2026-05-06 09:34 | 35.56671 | 32.17042 | 33093 ft | 524 kts | 114° |
| 2026-05-06 09:34 | 35.53720 | 32.25232 | 33091 ft | 525 kts | 114° |
| 2026-05-06 09:35 | 35.50758 | 32.33435 | 33087 ft | 526 kts | 114° |
| 2026-05-06 09:35 | 35.47787 | 32.41644 | 33090 ft | 527 kts | 114° |
| 2026-05-06 09:36 | 35.44804 | 32.49852 | 33094 ft | 527 kts | 115° |
| 2026-05-06 09:36 | 35.41812 | 32.58069 | 33080 ft | 528 kts | 115° |
| 2026-05-06 09:37 | 35.38812 | 32.66285 | 33083 ft | 528 kts | 115° |
| 2026-05-06 09:37 | 35.35807 | 32.74496 | 33082 ft | 528 kts | 115° |
| 2026-05-06 09:38 | 35.32795 | 32.82708 | 33085 ft | 529 kts | 115° |
| 2026-05-06 09:38 | 35.29776 | 32.90917 | 33082 ft | 529 kts | 115° |
| 2026-05-06 09:39 | 35.26748 | 32.99123 | 33088 ft | 529 kts | 116° |
| 2026-05-06 09:39 | 35.23711 | 33.07334 | 33082 ft | 529 kts | 116° |
| 2026-05-06 09:40 | 35.20691 | 33.15478 | 33070 ft | 529 kts | 116° |
| 2026-05-06 09:40 | 35.16123 | 33.27759 | 33076 ft | 529 kts | 116° |
| 2026-05-06 09:41 | 35.13070 | 33.35938 | 33072 ft | 529 kts | 116° |
| 2026-05-06 09:41 | 35.10016 | 33.44100 | 33074 ft | 528 kts | 116° |
| 2026-05-06 09:42 | 35.06959 | 33.52251 | 33074 ft | 528 kts | 116° |
| 2026-05-06 09:42 | 35.03890 | 33.60415 | 33176 ft | 532 kts | 117° |
| 2026-05-06 09:43 | 35.02348 | 33.64509 | 33506 ft | 531 kts | 117° |
| 2026-05-06 09:43 | 35.00809 | 33.68594 | 33921 ft | 528 kts | 117° |
| 2026-05-06 09:43 | 34.99274 | 33.72660 | 34312 ft | 527 kts | 117° |
| 2026-05-06 09:43 | 34.97742 | 33.76710 | 34659 ft | 526 kts | 117° |
| 2026-05-06 09:44 | 34.96208 | 33.80759 | 34946 ft | 526 kts | 117° |
| 2026-05-06 09:44 | 34.94671 | 33.84812 | 35013 ft | 529 kts | 117° |
| 2026-05-06 09:44 | 34.91578 | 33.92959 | 35065 ft | 529 kts | 117° |
| 2026-05-06 09:45 | 34.88490 | 34.01069 | 35076 ft | 526 kts | 117° |
| 2026-05-06 09:45 | 34.85413 | 34.09133 | 35078 ft | 524 kts | 118° |
| 2026-05-06 09:46 | 34.82361 | 34.17111 | 35075 ft | 523 kts | 118° |
| 2026-05-06 09:46 | 34.79284 | 34.25127 | 35070 ft | 523 kts | 118° |
| 2026-05-06 09:47 | 34.76200 | 34.33144 | 35081 ft | 523 kts | 118° |
| 2026-05-06 09:47 | 34.73108 | 34.41172 | 35075 ft | 524 kts | 118° |
| 2026-05-06 09:48 | 34.70010 | 34.49194 | 35073 ft | 525 kts | 119° |
| 2026-05-06 09:48 | 34.66892 | 34.57239 | 35073 ft | 526 kts | 119° |
| 2026-05-06 09:49 | 34.63767 | 34.65284 | 35080 ft | 527 kts | 119° |
| 2026-05-06 09:49 | 34.60635 | 34.73333 | 35073 ft | 527 kts | 119° |
| 2026-05-06 09:50 | 34.57496 | 34.81380 | 35075 ft | 527 kts | 119° |
| 2026-05-06 09:50 | 34.54353 | 34.89415 | 35074 ft | 527 kts | 120° |
| 2026-05-06 09:51 | 34.51210 | 34.97438 | 35082 ft | 526 kts | 120° |
| 2026-05-06 09:51 | 34.48108 | 35.05470 | 35096 ft | 527 kts | 117° |
| 2026-05-06 09:52 | 34.45675 | 35.13890 | 35095 ft | 530 kts | 112° |
| 2026-05-06 09:52 | 34.43397 | 35.22370 | 35085 ft | 529 kts | 112° |
| 2026-05-06 09:53 | 34.41096 | 35.30765 | 35085 ft | 528 kts | 113° |
| 2026-05-06 09:53 | 34.38751 | 35.39178 | 35077 ft | 527 kts | 113° |
| 2026-05-06 09:54 | 34.36395 | 35.47587 | 35078 ft | 527 kts | 113° |
| 2026-05-06 09:54 | 34.34043 | 35.55982 | 35078 ft | 527 kts | 114° |
| 2026-05-06 09:55 | 34.31686 | 35.64370 | 35097 ft | 526 kts | 114° |
| 2026-05-06 09:55 | 34.29179 | 35.72666 | 35084 ft | 522 kts | 120° |
| 2026-05-06 09:56 | 34.26133 | 35.80605 | 35101 ft | 521 kts | 121° |
| 2026-05-06 09:56 | 34.23048 | 35.88527 | 35099 ft | 521 kts | 121° |
| 2026-05-06 09:57 | 34.19993 | 35.96477 | 35097 ft | 522 kts | 121° |
| 2026-05-06 09:57 | 34.16947 | 36.04438 | 35085 ft | 522 kts | 121° |
| 2026-05-06 09:58 | 34.13913 | 36.12343 | 35099 ft | 522 kts | 121° |
| 2026-05-06 09:58 | 34.10853 | 36.20296 | 35096 ft | 522 kts | 121° |
| 2026-05-06 09:59 | 34.07787 | 36.28244 | 35102 ft | 522 kts | 121° |
| 2026-05-06 09:59 | 34.04718 | 36.36179 | 35082 ft | 522 kts | 121° |
| 2026-05-06 10:00 | 34.01690 | 36.44151 | 35096 ft | 524 kts | 119° |
| 2026-05-06 10:00 | 33.98866 | 36.52241 | 35103 ft | 524 kts | 119° |
| 2026-05-06 10:01 | 33.95969 | 36.60290 | 35096 ft | 523 kts | 120° |
| 2026-05-06 10:01 | 33.92963 | 36.68257 | 35103 ft | 523 kts | 121° |
| 2026-05-06 10:02 | 33.89940 | 36.76216 | 35106 ft | 523 kts | 121° |
| 2026-05-06 10:02 | 33.86929 | 36.84185 | 35082 ft | 523 kts | 121° |
| 2026-05-06 10:03 | 33.83916 | 36.92161 | 35066 ft | 524 kts | 121° |
| 2026-05-06 10:03 | 33.80897 | 37.00141 | 35073 ft | 525 kts | 121° |
| 2026-05-06 10:04 | 33.77870 | 37.08122 | 35082 ft | 525 kts | 121° |
| 2026-05-06 10:04 | 33.74835 | 37.16102 | 35073 ft | 525 kts | 121° |
| 2026-05-06 10:05 | 33.71793 | 37.24078 | 35075 ft | 525 kts | 121° |
| 2026-05-06 10:05 | 33.68746 | 37.32052 | 35073 ft | 525 kts | 121° |
| 2026-05-06 10:06 | 33.65693 | 37.40018 | 35088 ft | 525 kts | 122° |
| 2026-05-06 10:06 | 33.62635 | 37.47982 | 35084 ft | 525 kts | 122° |
| 2026-05-06 10:07 | 33.59574 | 37.55940 | 35097 ft | 526 kts | 122° |
| 2026-05-06 10:07 | 33.55962 | 37.63297 | 35098 ft | 503 kts | 141° |
| 2026-05-06 10:08 | 33.53458 | 37.66151 | 35077 ft | 492 kts | 150° |
| 2026-05-06 10:08 | 33.50662 | 37.68444 | 35099 ft | 482 kts | 161° |
| 2026-05-06 10:08 | 33.44612 | 37.71737 | 35078 ft | 479 kts | 164° |
| 2026-05-06 10:09 | 33.38575 | 37.75170 | 35080 ft | 481 kts | 163° |
| 2026-05-06 10:09 | 33.32543 | 37.78631 | 35085 ft | 480 kts | 163° |
| 2026-05-06 10:10 | 33.27495 | 37.81515 | 35079 ft | 480 kts | 163° |
| 2026-05-06 10:10 | 33.21474 | 37.84939 | 35073 ft | 478 kts | 163° |
| 2026-05-06 10:11 | 33.15470 | 37.88349 | 35087 ft | 477 kts | 163° |
| 2026-05-06 10:11 | 33.09477 | 37.91749 | 35080 ft | 477 kts | 163° |
| 2026-05-06 10:12 | 33.03495 | 37.95137 | 35078 ft | 476 kts | 163° |
| 2026-05-06 10:12 | 32.97549 | 37.98503 | 35085 ft | 476 kts | 163° |
| 2026-05-06 10:13 | 32.91550 | 38.01954 | 35084 ft | 476 kts | 162° |
| 2026-05-06 10:13 | 32.85670 | 38.05477 | 35077 ft | 476 kts | 162° |
| 2026-05-06 10:14 | 32.79751 | 38.08998 | 35081 ft | 475 kts | 162° |
| 2026-05-06 10:14 | 32.73835 | 38.12505 | 35075 ft | 475 kts | 162° |
| 2026-05-06 10:15 | 32.67929 | 38.16002 | 35086 ft | 474 kts | 162° |
| 2026-05-06 10:15 | 32.62027 | 38.19493 | 35095 ft | 474 kts | 162° |
| 2026-05-06 10:16 | 32.56130 | 38.22979 | 35098 ft | 474 kts | 162° |
| 2026-05-06 10:16 | 32.50228 | 38.26464 | 35085 ft | 474 kts | 162° |
| 2026-05-06 10:17 | 32.44327 | 38.29938 | 35097 ft | 474 kts | 163° |
| 2026-05-06 10:17 | 32.38420 | 38.33410 | 35098 ft | 474 kts | 163° |
| 2026-05-06 10:18 | 32.32509 | 38.36880 | 35081 ft | 474 kts | 163° |
| 2026-05-06 10:18 | 32.26594 | 38.40351 | 35081 ft | 475 kts | 163° |
| 2026-05-06 10:19 | 32.20675 | 38.43819 | 35102 ft | 475 kts | 163° |
| 2026-05-06 10:19 | 32.14753 | 38.47279 | 35098 ft | 475 kts | 163° |
| 2026-05-06 10:20 | 32.08831 | 38.50741 | 35102 ft | 475 kts | 163° |
| 2026-05-06 10:20 | 32.02910 | 38.54193 | 35100 ft | 475 kts | 163° |
| 2026-05-06 10:21 | 31.96989 | 38.57641 | 35101 ft | 475 kts | 163° |
| 2026-05-06 10:21 | 31.91063 | 38.61087 | 35105 ft | 475 kts | 163° |
| 2026-05-06 10:22 | 31.85143 | 38.64538 | 35103 ft | 475 kts | 162° |
| 2026-05-06 10:22 | 31.79227 | 38.67991 | 35102 ft | 474 kts | 162° |
| 2026-05-06 10:23 | 31.73313 | 38.71439 | 35101 ft | 474 kts | 163° |
| 2026-05-06 10:23 | 31.67456 | 38.75056 | 35099 ft | 481 kts | 158° |
| 2026-05-06 10:24 | 31.61763 | 38.79182 | 35106 ft | 481 kts | 157° |
| 2026-05-06 10:24 | 31.56063 | 38.83304 | 35103 ft | 481 kts | 158° |
| 2026-05-06 10:25 | 31.50360 | 38.87397 | 35101 ft | 481 kts | 158° |
| 2026-05-06 10:25 | 31.44655 | 38.91476 | 35102 ft | 480 kts | 158° |
| 2026-05-06 10:26 | 31.38946 | 38.95551 | 35101 ft | 481 kts | 158° |
| 2026-05-06 10:26 | 31.33237 | 38.99622 | 35103 ft | 481 kts | 158° |
| 2026-05-06 10:27 | 31.27525 | 39.03691 | 35101 ft | 481 kts | 158° |
| 2026-05-06 10:27 | 31.21812 | 39.07752 | 35102 ft | 481 kts | 158° |
| 2026-05-06 10:28 | 31.16094 | 39.11812 | 35103 ft | 481 kts | 158° |
| 2026-05-06 10:28 | 31.10412 | 39.15840 | 35101 ft | 481 kts | 158° |
| 2026-05-06 10:29 | 31.04690 | 39.19892 | 35101 ft | 481 kts | 158° |
| 2026-05-06 10:29 | 30.98963 | 39.23946 | 35101 ft | 482 kts | 158° |
| 2026-05-06 10:30 | 30.93232 | 39.28001 | 35103 ft | 482 kts | 158° |
| 2026-05-06 10:30 | 30.87494 | 39.32054 | 35103 ft | 482 kts | 158° |
| 2026-05-06 10:31 | 30.81754 | 39.36111 | 35101 ft | 482 kts | 158° |
| 2026-05-06 10:31 | 30.76014 | 39.40154 | 35101 ft | 482 kts | 158° |
| 2026-05-06 10:32 | 30.70275 | 39.44191 | 35101 ft | 483 kts | 158° |
| 2026-05-06 10:32 | 30.64532 | 39.48230 | 35102 ft | 482 kts | 158° |
| 2026-05-06 10:33 | 30.58788 | 39.52259 | 35103 ft | 482 kts | 158° |
| 2026-05-06 10:33 | 30.53048 | 39.56283 | 35111 ft | 482 kts | 158° |
| 2026-05-06 10:34 | 30.47306 | 39.60303 | 35112 ft | 482 kts | 158° |
| 2026-05-06 10:34 | 30.41787 | 39.64851 | 35110 ft | 497 kts | 147° |
| 2026-05-06 10:35 | 30.37050 | 39.70837 | 35110 ft | 513 kts | 135° |
| 2026-05-06 10:35 | 30.32830 | 39.77513 | 35112 ft | 514 kts | 135° |
| 2026-05-06 10:36 | 30.28613 | 39.84195 | 35115 ft | 514 kts | 135° |
| 2026-05-06 10:36 | 30.24357 | 39.90826 | 35120 ft | 513 kts | 136° |
| 2026-05-06 10:37 | 30.20075 | 39.97443 | 35118 ft | 514 kts | 136° |
| 2026-05-06 10:37 | 30.15794 | 40.04053 | 35122 ft | 514 kts | 136° |
| 2026-05-06 10:38 | 30.11506 | 40.10664 | 35118 ft | 514 kts | 136° |
| 2026-05-06 10:38 | 30.07212 | 40.17280 | 35126 ft | 514 kts | 136° |
| 2026-05-06 10:39 | 30.02919 | 40.23883 | 35126 ft | 514 kts | 136° |
| 2026-05-06 10:39 | 29.98619 | 40.30482 | 35131 ft | 514 kts | 136° |
| 2026-05-06 10:40 | 29.94307 | 40.37070 | 35126 ft | 515 kts | 136° |
| 2026-05-06 10:40 | 29.89993 | 40.43654 | 35134 ft | 514 kts | 136° |
| 2026-05-06 10:41 | 29.85684 | 40.50230 | 35128 ft | 514 kts | 136° |
| 2026-05-06 10:41 | 29.81371 | 40.56798 | 35126 ft | 514 kts | 136° |
| 2026-05-06 10:42 | 29.77061 | 40.63360 | 35121 ft | 514 kts | 135° |
| 2026-05-06 10:42 | 29.73170 | 40.70284 | 35131 ft | 520 kts | 130° |
| 2026-05-06 10:43 | 29.69405 | 40.77397 | 35122 ft | 521 kts | 130° |
| 2026-05-06 10:44 | 29.63690 | 40.88079 | 35115 ft | 520 kts | 130° |
| 2026-05-06 10:44 | 29.59876 | 40.95134 | 35111 ft | 520 kts | 130° |
| 2026-05-06 10:45 | 29.56088 | 41.02130 | 35110 ft | 519 kts | 131° |
| 2026-05-06 10:45 | 29.52277 | 41.09161 | 35112 ft | 518 kts | 131° |
| 2026-05-06 10:46 | 29.48466 | 41.16182 | 35107 ft | 518 kts | 131° |
| 2026-05-06 10:46 | 29.44651 | 41.23195 | 35100 ft | 518 kts | 131° |
| 2026-05-06 10:47 | 29.40833 | 41.30206 | 35100 ft | 518 kts | 131° |
| 2026-05-06 10:47 | 29.37011 | 41.37212 | 35083 ft | 518 kts | 131° |
| 2026-05-06 10:48 | 29.33183 | 41.44211 | 35099 ft | 518 kts | 131° |
| 2026-05-06 10:48 | 29.29351 | 41.51195 | 35081 ft | 517 kts | 131° |
| 2026-05-06 10:49 | 29.25516 | 41.58177 | 35082 ft | 517 kts | 131° |
| 2026-05-06 10:49 | 29.21686 | 41.65137 | 35081 ft | 518 kts | 131° |
| 2026-05-06 10:50 | 29.17841 | 41.72113 | 35077 ft | 518 kts | 131° |
| 2026-05-06 10:50 | 29.13992 | 41.79089 | 35072 ft | 519 kts | 131° |
| 2026-05-06 10:51 | 29.10137 | 41.86063 | 35064 ft | 519 kts | 131° |
| 2026-05-06 10:51 | 29.06274 | 41.93046 | 35071 ft | 519 kts | 131° |
| 2026-05-06 10:52 | 29.02408 | 42.00013 | 35064 ft | 519 kts | 131° |
| 2026-05-06 10:52 | 28.98541 | 42.06976 | 35061 ft | 519 kts | 131° |
| 2026-05-06 10:53 | 28.94668 | 42.13942 | 35053 ft | 519 kts | 131° |
| 2026-05-06 10:53 | 28.91450 | 42.19721 | 35049 ft | 519 kts | 131° |
| 2026-05-06 10:54 | 28.87582 | 42.26657 | 35043 ft | 518 kts | 131° |
| 2026-05-06 10:54 | 28.83708 | 42.33597 | 35045 ft | 518 kts | 131° |
| 2026-05-06 10:55 | 28.79836 | 42.40518 | 35045 ft | 518 kts | 131° |
| 2026-05-06 10:55 | 28.75959 | 42.47434 | 35049 ft | 518 kts | 131° |
| 2026-05-06 10:56 | 28.72079 | 42.54349 | 35045 ft | 518 kts | 132° |
| 2026-05-06 10:56 | 28.68199 | 42.61254 | 35043 ft | 518 kts | 132° |
| 2026-05-06 10:57 | 28.64232 | 42.68069 | 35038 ft | 512 kts | 136° |
| 2026-05-06 10:57 | 28.59589 | 42.74068 | 35038 ft | 502 kts | 143° |
| 2026-05-06 10:58 | 28.54787 | 42.79845 | 35041 ft | 503 kts | 143° |
| 2026-05-06 10:58 | 28.49996 | 42.85657 | 35037 ft | 504 kts | 143° |
| 2026-05-06 10:59 | 28.45217 | 42.91499 | 35037 ft | 505 kts | 143° |
| 2026-05-06 10:59 | 28.40438 | 42.97345 | 35041 ft | 505 kts | 143° |
| 2026-05-06 11:00 | 28.35651 | 43.03189 | 35035 ft | 506 kts | 143° |
| 2026-05-06 11:00 | 28.30855 | 43.09036 | 35038 ft | 506 kts | 143° |
| 2026-05-06 11:01 | 28.26056 | 43.14873 | 35035 ft | 506 kts | 143° |
| 2026-05-06 11:01 | 28.21253 | 43.20707 | 35041 ft | 506 kts | 143° |
| 2026-05-06 11:02 | 28.16479 | 43.26500 | 35032 ft | 506 kts | 143° |
| 2026-05-06 11:02 | 28.11678 | 43.32320 | 35038 ft | 505 kts | 143° |
| 2026-05-06 11:03 | 28.06877 | 43.38129 | 35022 ft | 505 kts | 143° |
| 2026-05-06 11:03 | 28.02075 | 43.43930 | 35019 ft | 505 kts | 143° |
| 2026-05-06 11:04 | 27.97269 | 43.49727 | 35023 ft | 505 kts | 143° |
| 2026-05-06 11:04 | 27.92457 | 43.55526 | 35011 ft | 506 kts | 143° |
| 2026-05-06 11:05 | 27.87639 | 43.61325 | 35005 ft | 506 kts | 143° |
| 2026-05-06 11:05 | 27.82807 | 43.67088 | 35002 ft | 504 kts | 144° |
| 2026-05-06 11:06 | 27.77786 | 43.72574 | 35007 ft | 501 kts | 147° |
| 2026-05-06 11:06 | 27.72720 | 43.77971 | 34999 ft | 501 kts | 146° |
| 2026-05-06 11:07 | 27.67680 | 43.83397 | 34978 ft | 501 kts | 146° |
| 2026-05-06 11:07 | 27.62655 | 43.88850 | 34982 ft | 501 kts | 146° |
| 2026-05-06 11:08 | 27.57636 | 43.94297 | 34981 ft | 501 kts | 146° |
| 2026-05-06 11:08 | 27.52613 | 43.99738 | 34982 ft | 501 kts | 146° |
| 2026-05-06 11:09 | 27.47589 | 44.05172 | 34979 ft | 501 kts | 146° |
| 2026-05-06 11:09 | 27.42558 | 44.10606 | 35004 ft | 501 kts | 146° |
| 2026-05-06 11:10 | 27.37525 | 44.16034 | 34971 ft | 501 kts | 146° |
| 2026-05-06 11:10 | 27.32487 | 44.21459 | 34976 ft | 502 kts | 146° |
| 2026-05-06 11:11 | 27.27446 | 44.26882 | 34973 ft | 502 kts | 146° |
| 2026-05-06 11:11 | 27.22433 | 44.32268 | 34971 ft | 502 kts | 146° |
| 2026-05-06 11:12 | 27.17390 | 44.37679 | 34973 ft | 502 kts | 146° |
| 2026-05-06 11:12 | 27.12336 | 44.43088 | 34974 ft | 501 kts | 146° |
| 2026-05-06 11:13 | 27.07283 | 44.48484 | 34972 ft | 501 kts | 146° |
| 2026-05-06 11:13 | 27.02229 | 44.53881 | 34975 ft | 501 kts | 146° |
| 2026-05-06 11:14 | 26.97174 | 44.59273 | 34968 ft | 502 kts | 146° |
| 2026-05-06 11:14 | 26.92122 | 44.64665 | 34974 ft | 502 kts | 146° |
| 2026-05-06 11:15 | 26.87062 | 44.70070 | 34972 ft | 502 kts | 146° |
| 2026-05-06 11:15 | 26.82003 | 44.75466 | 34973 ft | 502 kts | 146° |
| 2026-05-06 11:16 | 26.76940 | 44.80855 | 34973 ft | 502 kts | 146° |
| 2026-05-06 11:16 | 26.71867 | 44.86227 | 34974 ft | 502 kts | 146° |
| 2026-05-06 11:17 | 26.66788 | 44.91589 | 34969 ft | 502 kts | 146° |
| 2026-05-06 11:17 | 26.61722 | 44.96939 | 34963 ft | 501 kts | 146° |
| 2026-05-06 11:18 | 26.56646 | 45.02290 | 34960 ft | 501 kts | 146° |
| 2026-05-06 11:18 | 26.51577 | 45.07633 | 34964 ft | 501 kts | 146° |
| 2026-05-06 11:19 | 26.46506 | 45.12974 | 34963 ft | 501 kts | 146° |
| 2026-05-06 11:19 | 26.41433 | 45.18311 | 34962 ft | 501 kts | 145° |
| 2026-05-06 11:20 | 26.36359 | 45.23645 | 34967 ft | 501 kts | 145° |
| 2026-05-06 11:20 | 26.31315 | 45.28938 | 34960 ft | 501 kts | 145° |
| 2026-05-06 11:21 | 26.26242 | 45.34275 | 34964 ft | 501 kts | 145° |
| 2026-05-06 11:21 | 26.21179 | 45.39608 | 34958 ft | 501 kts | 145° |
| 2026-05-06 11:22 | 26.16119 | 45.44926 | 34965 ft | 501 kts | 145° |
| 2026-05-06 11:22 | 26.11042 | 45.50238 | 34963 ft | 501 kts | 145° |
| 2026-05-06 11:23 | 26.05965 | 45.55535 | 34963 ft | 500 kts | 145° |
| 2026-05-06 11:23 | 26.00886 | 45.60830 | 34965 ft | 501 kts | 145° |
| 2026-05-06 11:24 | 25.95808 | 45.66122 | 34964 ft | 500 kts | 145° |
| 2026-05-06 11:24 | 25.90735 | 45.71405 | 34962 ft | 500 kts | 145° |
| 2026-05-06 11:25 | 25.85661 | 45.76676 | 34962 ft | 499 kts | 145° |
| 2026-05-06 11:25 | 25.80587 | 45.81945 | 34960 ft | 499 kts | 145° |
| 2026-05-06 11:26 | 25.75517 | 45.87206 | 34959 ft | 499 kts | 145° |
| 2026-05-06 11:26 | 25.70448 | 45.92460 | 34952 ft | 499 kts | 145° |
| 2026-05-06 11:27 | 25.65370 | 45.97719 | 34951 ft | 499 kts | 145° |
| 2026-05-06 11:27 | 25.60332 | 46.02929 | 34958 ft | 499 kts | 145° |
| 2026-05-06 11:28 | 25.55252 | 46.08174 | 34953 ft | 499 kts | 145° |
| 2026-05-06 11:28 | 25.50164 | 46.13423 | 34954 ft | 499 kts | 145° |
| 2026-05-06 11:29 | 25.45082 | 46.18660 | 34949 ft | 500 kts | 145° |
| 2026-05-06 11:29 | 25.39987 | 46.23905 | 34946 ft | 500 kts | 144° |
| 2026-05-06 11:30 | 25.34893 | 46.29144 | 34942 ft | 500 kts | 144° |
| 2026-05-06 11:30 | 25.29792 | 46.34379 | 34951 ft | 501 kts | 144° |
| 2026-05-06 11:31 | 25.24688 | 46.39619 | 34948 ft | 501 kts | 144° |
| 2026-05-06 11:31 | 25.19575 | 46.44858 | 34934 ft | 502 kts | 144° |
| 2026-05-06 11:32 | 25.14460 | 46.50093 | 34933 ft | 501 kts | 144° |
| 2026-05-06 11:32 | 25.09346 | 46.55323 | 34937 ft | 501 kts | 144° |
| 2026-05-06 11:33 | 25.04248 | 46.60564 | 34931 ft | 501 kts | 140° |
| 2026-05-06 11:33 | 25.02141 | 46.63678 | 34931 ft | 517 kts | 123° |
| 2026-05-06 11:33 | 25.00890 | 46.67439 | 34933 ft | 531 kts | 105° |
| 2026-05-06 11:33 | 25.00641 | 46.71531 | 34937 ft | 541 kts | 89° |
| 2026-05-06 11:34 | 25.01369 | 46.75622 | 34925 ft | 549 kts | 71° |
| 2026-05-06 11:34 | 25.04588 | 46.83231 | 34940 ft | 549 kts | 65° |
| 2026-05-06 11:35 | 25.07947 | 46.90828 | 34946 ft | 552 kts | 65° |
| 2026-05-06 11:35 | 25.11186 | 46.98455 | 34935 ft | 553 kts | 66° |
| 2026-05-06 11:36 | 25.14389 | 47.06189 | 34939 ft | 555 kts | 66° |
| 2026-05-06 11:36 | 25.17589 | 47.13938 | 34935 ft | 555 kts | 66° |
| 2026-05-06 11:37 | 25.20793 | 47.21688 | 34930 ft | 555 kts | 66° |
| 2026-05-06 11:37 | 25.23992 | 47.29431 | 34923 ft | 554 kts | 66° |
| 2026-05-06 11:38 | 25.27183 | 47.37164 | 34923 ft | 553 kts | 66° |
| 2026-05-06 11:38 | 25.30365 | 47.44891 | 34919 ft | 552 kts | 66° |
| 2026-05-06 11:39 | 25.33540 | 47.52618 | 34917 ft | 552 kts | 66° |
| 2026-05-06 11:39 | 25.36711 | 47.60350 | 34918 ft | 552 kts | 66° |
| 2026-05-06 11:40 | 25.39881 | 47.68093 | 34912 ft | 553 kts | 66° |
| 2026-05-06 11:40 | 25.43052 | 47.75845 | 34902 ft | 554 kts | 66° |
| 2026-05-06 11:41 | 25.45691 | 47.82301 | 34897 ft | 554 kts | 66° |
| 2026-05-06 11:41 | 25.48885 | 47.90130 | 34894 ft | 555 kts | 66° |
| 2026-05-06 11:42 | 25.52056 | 47.97917 | 34886 ft | 555 kts | 66° |
| 2026-05-06 11:42 | 25.55226 | 48.05715 | 34885 ft | 556 kts | 66° |
| 2026-05-06 11:43 | 25.58393 | 48.13524 | 34877 ft | 556 kts | 66° |
| 2026-05-06 11:43 | 25.61536 | 48.21296 | 34871 ft | 556 kts | 66° |
| 2026-05-06 11:44 | 25.66239 | 48.33046 | 34854 ft | 556 kts | 70° |
| 2026-05-06 11:44 | 25.68026 | 48.41312 | 34858 ft | 550 kts | 86° |
| 2026-05-06 11:45 | 25.68078 | 48.49703 | 34853 ft | 542 kts | 98° |
| 2026-05-06 11:45 | 25.67444 | 48.58030 | 34842 ft | 542 kts | 99° |
| 2026-05-06 11:46 | 25.66837 | 48.66353 | 34843 ft | 542 kts | 98° |
| 2026-05-06 11:46 | 25.66290 | 48.74676 | 34844 ft | 541 kts | 98° |
| 2026-05-06 11:47 | 25.65755 | 48.82996 | 34835 ft | 541 kts | 98° |
| 2026-05-06 11:47 | 25.65213 | 48.91309 | 34832 ft | 540 kts | 98° |
| 2026-05-06 11:48 | 25.64664 | 48.99617 | 34836 ft | 540 kts | 98° |
| 2026-05-06 11:48 | 25.64106 | 49.07917 | 34833 ft | 540 kts | 98° |
| 2026-05-06 11:49 | 25.63542 | 49.16220 | 34832 ft | 540 kts | 98° |
| 2026-05-06 11:49 | 25.62984 | 49.24458 | 34833 ft | 539 kts | 98° |
| 2026-05-06 11:50 | 25.62415 | 49.32744 | 34829 ft | 539 kts | 98° |
| 2026-05-06 11:50 | 25.61834 | 49.41022 | 34835 ft | 539 kts | 98° |
| 2026-05-06 11:51 | 25.61244 | 49.49313 | 34834 ft | 539 kts | 98° |
| 2026-05-06 11:51 | 25.60651 | 49.57599 | 34833 ft | 540 kts | 98° |
| 2026-05-06 11:52 | 25.60056 | 49.65889 | 34825 ft | 540 kts | 98° |
| 2026-05-06 11:52 | 25.59455 | 49.74183 | 34825 ft | 540 kts | 98° |
| 2026-05-06 11:53 | 25.58847 | 49.82484 | 34830 ft | 541 kts | 98° |
| 2026-05-06 11:53 | 25.58236 | 49.90780 | 34830 ft | 541 kts | 98° |
| 2026-05-06 11:54 | 25.57620 | 49.99087 | 34816 ft | 541 kts | 98° |
| 2026-05-06 11:54 | 25.57000 | 50.07388 | 34810 ft | 541 kts | 98° |
| 2026-05-06 11:55 | 25.56299 | 50.15676 | 34813 ft | 539 kts | 102° |
| 2026-05-06 11:55 | 25.54608 | 50.23689 | 34815 ft | 531 kts | 114° |
| 2026-05-06 11:56 | 25.52179 | 50.31406 | 34809 ft | 531 kts | 114° |
| 2026-05-06 11:56 | 25.49775 | 50.39131 | 34811 ft | 531 kts | 113° |
| 2026-05-06 11:57 | 25.47416 | 50.46874 | 34826 ft | 531 kts | 113° |
| 2026-05-06 11:57 | 25.45061 | 50.54611 | 34809 ft | 530 kts | 113° |
| 2026-05-06 11:58 | 25.42804 | 50.62382 | 34829 ft | 532 kts | 108° |
| 2026-05-06 11:58 | 25.41474 | 50.70471 | 34832 ft | 535 kts | 102° |
| 2026-05-06 11:59 | 25.40384 | 50.78619 | 34807 ft | 535 kts | 102° |
| 2026-05-06 11:59 | 25.39261 | 50.86758 | 34802 ft | 535 kts | 102° |
| 2026-05-06 12:00 | 25.38098 | 50.94886 | 34803 ft | 535 kts | 102° |
| 2026-05-06 12:00 | 25.36920 | 51.03000 | 34809 ft | 535 kts | 102° |
| 2026-05-06 12:01 | 25.35739 | 51.11111 | 34799 ft | 534 kts | 102° |
| 2026-05-06 12:01 | 25.34557 | 51.19216 | 34799 ft | 534 kts | 102° |
| 2026-05-06 12:02 | 25.33379 | 51.27261 | 34803 ft | 534 kts | 102° |
| 2026-05-06 12:02 | 25.32181 | 51.35413 | 34794 ft | 534 kts | 102° |
| 2026-05-06 12:03 | 25.30997 | 51.43453 | 34792 ft | 534 kts | 102° |
| 2026-05-06 12:03 | 25.29797 | 51.51553 | 34804 ft | 534 kts | 102° |
| 2026-05-06 12:04 | 25.28598 | 51.59632 | 34802 ft | 535 kts | 102° |
| 2026-05-06 12:04 | 25.27387 | 51.67748 | 34807 ft | 536 kts | 102° |
| 2026-05-06 12:05 | 25.26171 | 51.75862 | 34800 ft | 536 kts | 102° |
| 2026-05-06 12:05 | 25.24948 | 51.83993 | 34804 ft | 536 kts | 102° |
| 2026-05-06 12:06 | 25.23723 | 51.92120 | 34801 ft | 537 kts | 102° |
| 2026-05-06 12:06 | 25.22490 | 52.00260 | 34802 ft | 537 kts | 102° |
| 2026-05-06 12:07 | 25.21252 | 52.08393 | 34800 ft | 537 kts | 102° |
| 2026-05-06 12:07 | 25.20012 | 52.16525 | 34789 ft | 537 kts | 102° |
| 2026-05-06 12:08 | 25.18768 | 52.24648 | 34799 ft | 536 kts | 102° |
| 2026-05-06 12:08 | 25.17518 | 52.32772 | 34795 ft | 536 kts | 102° |
| 2026-05-06 12:09 | 25.16268 | 52.40881 | 34799 ft | 536 kts | 102° |
| 2026-05-06 12:09 | 25.15010 | 52.48992 | 34797 ft | 536 kts | 102° |
| 2026-05-06 12:10 | 25.13533 | 52.57023 | 34794 ft | 532 kts | 109° |
| 2026-05-06 12:10 | 25.10941 | 52.64618 | 34795 ft | 527 kts | 120° |
| 2026-05-06 12:11 | 25.07565 | 52.71770 | 34799 ft | 526 kts | 120° |
| 2026-05-06 12:11 | 25.04763 | 52.79262 | 34488 ft | 536 kts | 110° |
| 2026-05-06 12:12 | 25.03801 | 52.83293 | 33559 ft | 546 kts | 105° |
| 2026-05-06 12:12 | 25.02946 | 52.87369 | 32684 ft | 546 kts | 105° |
| 2026-05-06 12:12 | 25.02092 | 52.91448 | 31750 ft | 547 kts | 105° |
| 2026-05-06 12:12 | 25.01206 | 52.95523 | 30776 ft | 547 kts | 106° |
| 2026-05-06 12:13 | 25.00291 | 52.99588 | 29945 ft | 544 kts | 106° |
| 2026-05-06 12:13 | 24.99374 | 53.03603 | 29292 ft | 537 kts | 106° |
| 2026-05-06 12:13 | 24.98464 | 53.07575 | 28618 ft | 531 kts | 106° |
| 2026-05-06 12:13 | 24.97557 | 53.11503 | 27963 ft | 526 kts | 106° |
| 2026-05-06 12:14 | 24.96658 | 53.15379 | 27316 ft | 520 kts | 106° |
| 2026-05-06 12:14 | 24.95765 | 53.19221 | 26661 ft | 514 kts | 106° |
| 2026-05-06 12:14 | 24.94882 | 53.23016 | 26024 ft | 509 kts | 105° |
| 2026-05-06 12:14 | 24.94008 | 53.26773 | 25385 ft | 504 kts | 105° |
| 2026-05-06 12:15 | 24.93144 | 53.30489 | 24762 ft | 498 kts | 105° |
| 2026-05-06 12:15 | 24.92288 | 53.34166 | 24125 ft | 492 kts | 105° |
| 2026-05-06 12:15 | 24.91432 | 53.37798 | 23492 ft | 487 kts | 107° |
| 2026-05-06 12:15 | 24.90375 | 53.41311 | 22871 ft | 480 kts | 112° |
| 2026-05-06 12:16 | 24.89056 | 53.44624 | 22244 ft | 463 kts | 118° |
| 2026-05-06 12:16 | 24.87514 | 53.47662 | 21662 ft | 445 kts | 121° |
| 2026-05-06 12:16 | 24.86005 | 53.50570 | 21094 ft | 430 kts | 120° |
| 2026-05-06 12:16 | 24.84564 | 53.53376 | 20580 ft | 427 kts | 120° |
| 2026-05-06 12:17 | 24.83120 | 53.56213 | 20036 ft | 424 kts | 120° |
| 2026-05-06 12:17 | 24.81688 | 53.59037 | 19489 ft | 421 kts | 120° |
| 2026-05-06 12:17 | 24.80272 | 53.61839 | 18948 ft | 417 kts | 119° |
| 2026-05-06 12:17 | 24.78867 | 53.64617 | 18408 ft | 414 kts | 119° |
| 2026-05-06 12:18 | 24.77471 | 53.67375 | 17873 ft | 411 kts | 119° |
| 2026-05-06 12:18 | 24.76083 | 53.70114 | 17329 ft | 408 kts | 119° |
| 2026-05-06 12:18 | 24.74708 | 53.72825 | 16792 ft | 404 kts | 119° |
| 2026-05-06 12:18 | 24.73342 | 53.75517 | 16259 ft | 401 kts | 119° |
| 2026-05-06 12:19 | 24.71990 | 53.78180 | 15756 ft | 397 kts | 119° |
| 2026-05-06 12:19 | 24.70666 | 53.80789 | 15600 ft | 384 kts | 119° |
| 2026-05-06 12:19 | 24.69385 | 53.83313 | 15425 ft | 372 kts | 119° |
| 2026-05-06 12:19 | 24.68145 | 53.85755 | 15263 ft | 360 kts | 119° |
| 2026-05-06 12:20 | 24.66944 | 53.88118 | 15107 ft | 348 kts | 119° |
| 2026-05-06 12:20 | 24.65781 | 53.90404 | 14976 ft | 337 kts | 119° |
| 2026-05-06 12:20 | 24.64658 | 53.92611 | 14820 ft | 326 kts | 119° |
| 2026-05-06 12:20 | 24.63579 | 53.94755 | 14670 ft | 315 kts | 117° |
| 2026-05-06 12:21 | 24.62638 | 53.96897 | 14459 ft | 308 kts | 114° |
| 2026-05-06 12:21 | 24.61769 | 53.99024 | 14280 ft | 303 kts | 114° |
| 2026-05-06 12:21 | 24.60912 | 54.01136 | 14205 ft | 302 kts | 114° |
| 2026-05-06 12:21 | 24.60041 | 54.03267 | 14088 ft | 311 kts | 114° |
| 2026-05-06 12:22 | 24.59140 | 54.05454 | 13894 ft | 315 kts | 114° |
| 2026-05-06 12:22 | 24.58235 | 54.07639 | 13681 ft | 313 kts | 114° |
| 2026-05-06 12:22 | 24.57332 | 54.09810 | 13445 ft | 312 kts | 114° |
| 2026-05-06 12:22 | 24.56432 | 54.11969 | 13245 ft | 310 kts | 114° |
| 2026-05-06 12:23 | 24.55537 | 54.14111 | 13019 ft | 308 kts | 114° |
| 2026-05-06 12:23 | 24.54648 | 54.16238 | 12830 ft | 305 kts | 114° |
| 2026-05-06 12:23 | 24.53765 | 54.18350 | 12605 ft | 304 kts | 114° |
| 2026-05-06 12:23 | 24.52921 | 54.20464 | 12397 ft | 302 kts | 111° |
| 2026-05-06 12:24 | 24.52178 | 54.22608 | 12203 ft | 299 kts | 110° |
| 2026-05-06 12:24 | 24.51461 | 54.24744 | 12001 ft | 298 kts | 110° |
| 2026-05-06 12:24 | 24.50743 | 54.26870 | 11787 ft | 297 kts | 110° |
| 2026-05-06 12:24 | 24.50019 | 54.28992 | 11589 ft | 296 kts | 110° |
| 2026-05-06 12:25 | 24.49293 | 54.31106 | 11391 ft | 296 kts | 110° |
| 2026-05-06 12:25 | 24.48811 | 54.32502 | 11261 ft | 296 kts | 110° |
| 2026-05-06 12:25 | 24.48080 | 54.34614 | 11061 ft | 296 kts | 111° |
| 2026-05-06 12:25 | 24.47347 | 54.36733 | 10816 ft | 298 kts | 111° |
| 2026-05-06 12:26 | 24.46608 | 54.38865 | 10562 ft | 300 kts | 111° |
| 2026-05-06 12:26 | 24.45864 | 54.41010 | 10319 ft | 301 kts | 111° |
| 2026-05-06 12:26 | 24.45127 | 54.43135 | 10053 ft | 295 kts | 111° |
| 2026-05-06 12:26 | 24.44404 | 54.45216 | 9805 ft | 288 kts | 111° |
| 2026-05-06 12:27 | 24.43698 | 54.47249 | 9557 ft | 283 kts | 111° |
| 2026-05-06 12:27 | 24.43001 | 54.49259 | 9340 ft | 281 kts | 111° |
| 2026-05-06 12:27 | 24.42305 | 54.51260 | 9088 ft | 279 kts | 111° |
| 2026-05-06 12:27 | 24.41471 | 54.53131 | 8880 ft | 270 kts | 124° |
| 2026-05-06 12:28 | 24.40362 | 54.54772 | 8766 ft | 267 kts | 128° |
| 2026-05-06 12:28 | 24.39195 | 54.56350 | 8616 ft | 267 kts | 129° |
| 2026-05-06 12:28 | 24.38014 | 54.57940 | 8455 ft | 269 kts | 129° |
| 2026-05-06 12:28 | 24.36851 | 54.59519 | 8295 ft | 270 kts | 128° |
| 2026-05-06 12:29 | 24.35676 | 54.61126 | 8145 ft | 271 kts | 128° |
| 2026-05-06 12:29 | 24.34505 | 54.62742 | 7994 ft | 271 kts | 128° |
| 2026-05-06 12:29 | 24.33338 | 54.64364 | 7824 ft | 271 kts | 128° |
| 2026-05-06 12:29 | 24.32172 | 54.65989 | 7671 ft | 271 kts | 128° |
| 2026-05-06 12:30 | 24.31010 | 54.67610 | 7499 ft | 270 kts | 128° |
| 2026-05-06 12:30 | 24.29854 | 54.69224 | 7359 ft | 269 kts | 128° |
| 2026-05-06 12:30 | 24.28698 | 54.70840 | 7203 ft | 268 kts | 128° |
| 2026-05-06 12:30 | 24.27550 | 54.72445 | 7042 ft | 267 kts | 128° |
| 2026-05-06 12:31 | 24.26410 | 54.74036 | 6887 ft | 264 kts | 128° |
| 2026-05-06 12:31 | 24.25280 | 54.75615 | 6724 ft | 262 kts | 128° |
| 2026-05-06 12:31 | 24.24163 | 54.77177 | 6594 ft | 260 kts | 128° |
| 2026-05-06 12:31 | 24.23053 | 54.78726 | 6421 ft | 258 kts | 128° |
| 2026-05-06 12:32 | 24.21951 | 54.80266 | 6285 ft | 257 kts | 128° |
| 2026-05-06 12:32 | 24.20852 | 54.81800 | 6150 ft | 256 kts | 128° |
| 2026-05-06 12:32 | 24.19752 | 54.83330 | 5932 ft | 256 kts | 128° |
| 2026-05-06 12:32 | 24.18663 | 54.84853 | 5644 ft | 252 kts | 128° |
| 2026-05-06 12:33 | 24.17588 | 54.86361 | 5266 ft | 249 kts | 127° |
| 2026-05-06 12:33 | 24.16840 | 54.88021 | 4797 ft | 242 kts | 94° |
| 2026-05-06 12:33 | 24.17173 | 54.89707 | 4814 ft | 223 kts | 59° |
| 2026-05-06 12:33 | 24.18172 | 54.90957 | 4721 ft | 216 kts | 38° |
| 2026-05-06 12:34 | 24.19455 | 54.91743 | 4550 ft | 209 kts | 20° |